sensor_id;sensor_type;location;lat;lon;timestamp;temperature;humidity
15048;DHT22;7621;52.350;13.308;2022-10-23T17:57:48;16.90;99.90
15048;DHT22;7621;52.350;13.308;2022-10-23T18:00:14;16.90;99.90
15048;DHT22;7621;52.350;13.308;2022-10-23T18:02:40;16.80;99.90
15048;DHT22;7621;52.350;13.308;2022-10-23T18:05:06;16.90;99.90
15048;DHT22;7621;52.350;13.308;2022-10-23T18:07:32;16.80;99.90
15048;DHT22;7621;52.350;13.308;2022-10-23T18:09:58;16.80;99.90
15048;DHT22;7621;52.350;13.308;2022-10-23T18:12:24;16.80;99.90
15048;DHT22;7621;52.350;13.308;2022-10-23T18:14:50;16.80;99.90
15048;DHT22;7621;52.350;13.308;2022-10-23T18:17:15;16.80;99.90
15048;DHT22;7621;52.350;13.308;2022-10-23T18:19:41;16.70;99.90
15048;DHT22;7621;52.350;13.308;2022-10-23T18:22:06;16.70;99.90
15048;DHT22;7621;52.350;13.308;2022-10-23T18:24:32;16.70;99.90
15048;DHT22;7621;52.350;13.308;2022-10-23T18:26:58;16.60;99.90
15048;DHT22;7621;52.350;13.308;2022-10-23T18:29:23;16.60;99.90
15048;DHT22;7621;52.350;13.308;2022-10-23T18:31:49;16.60;99.90
15048;DHT22;7621;52.350;13.308;2022-10-23T18:34:20;16.50;99.90
15048;DHT22;7621;52.350;13.308;2022-10-23T18:36:47;16.50;99.90
15048;DHT22;7621;52.350;13.308;2022-10-23T18:39:15;16.50;99.90
15048;DHT22;7621;52.350;13.308;2022-10-23T18:41:42;16.40;99.90
15048;DHT22;7621;52.350;13.308;2022-10-23T18:44:10;16.40;99.90
15048;DHT22;7621;52.350;13.308;2022-10-23T18:46:38;16.30;99.90
15048;DHT22;7621;52.350;13.308;2022-10-23T18:49:04;16.30;99.90
15048;DHT22;7621;52.350;13.308;2022-10-23T18:51:32;16.30;99.90
15048;DHT22;7621;52.350;13.308;2022-10-23T18:54:00;16.20;99.90
15048;DHT22;7621;52.350;13.308;2022-10-23T18:56:26;16.20;99.90
15048;DHT22;7621;52.350;13.308;2022-10-23T18:58:57;16.20;99.90
15048;DHT22;7621;52.350;13.308;2022-10-23T19:01:24;16.20;99.90
15048;DHT22;7621;52.350;13.308;2022-10-23T19:03:52;16.20;99.90
15048;DHT22;7621;52.350;13.308;2022-10-23T19:06:18;16.20;99.90
15048;DHT22;7621;52.350;13.308;2022-10-23T19:08:44;16.20;99.90
15048;DHT22;7621;52.350;13.308;2022-10-23T19:11:11;16.10;99.90
15048;DHT22;7621;52.350;13.308;2022-10-23T19:13:38;16.10;99.90
15048;DHT22;7621;52.350;13.308;2022-10-23T19:16:07;16.10;99.90
15048;DHT22;7621;52.350;13.308;2022-10-23T19:18:35;16.10;99.90
15048;DHT22;7621;52.350;13.308;2022-10-23T19:21:01;16.10;99.90
15048;DHT22;7621;52.350;13.308;2022-10-23T19:23:31;16.00;99.90
15048;DHT22;7621;52.350;13.308;2022-10-23T19:26:00;16.00;99.90
15048;DHT22;7621;52.350;13.308;2022-10-23T19:28:30;16.00;99.90
15048;DHT22;7621;52.350;13.308;2022-10-23T19:30:56;16.00;99.90
15048;DHT22;7621;52.350;13.308;2022-10-23T19:33:21;15.90;99.90
15048;DHT22;7621;52.350;13.308;2022-10-23T19:35:47;15.90;99.90
15048;DHT22;7621;52.350;13.308;2022-10-23T19:38:12;15.80;99.90
15048;DHT22;7621;52.350;13.308;2022-10-23T19:40:38;15.80;99.90
15048;DHT22;7621;52.350;13.308;2022-10-23T19:43:03;15.80;99.90
15048;DHT22;7621;52.350;13.308;2022-10-23T19:45:29;15.80;99.90
15048;DHT22;7621;52.350;13.308;2022-10-23T19:47:54;15.80;99.90
15048;DHT22;7621;52.350;13.308;2022-10-23T19:50:20;15.80;99.90
15048;DHT22;7621;52.350;13.308;2022-10-23T19:52:45;15.70;99.90
15048;DHT22;7621;52.350;13.308;2022-10-23T19:55:11;15.70;99.90
15048;DHT22;7621;52.350;13.308;2022-10-23T19:57:37;15.70;99.90
